PALG

Details ICAO PALG (KLG)
Name Kalskag
Region USA (Alaska)
Timezone America/Anchorage (UTC-8.0)
Plans Departing 0
Arriving 0
Stats Elevation 55 ft / 17 m (AMSL)
Location 61.536274° -160.341329°
Runways 1
Magnetic Variation 12.061° E
Sunrise 2018-05-24 13:30:35 UTC / 2018-05-24 05:30:35 Local
Sunset 2018-05-25 07:48:47 UTC / 2018-05-24 23:48:47 Local
Advertisement - Login to hide

Runways

ID Width Length Bearing (true) Bearing (mag) Surface Threshold Offset Overrun Length
06 59 ft / 18 m 3,189 ft / 972 m 80.94° 68.88° Gravel 0 ft / 0 m 0 ft / 0 m
24 59 ft / 18 m 3,189 ft / 972 m 260.96° 248.90° Gravel 0 ft / 0 m 0 ft / 0 m

Map

Weather


0- 5 10 15 20 25 30 35+ Temperature / ° C

Clouds and Precipitation
Forecast for 2018-05-24 12:00 UTC. Updated 3 hours ago

Ground ~20,000 ft ~40,000 ft Winds

METAR

PALG 241356Z AUTO 09004KT 6SM BKN040 OVC050 07/06 A2967 RMK AO2 SLP297 P0008 PWINO FZRANO TSNO RVRNO

TAF

Not found

Frequencies

Recorded 119.02 MHz ASOS
Unicom 122.80 MHz CTAF/UNICOM
Warning: Do not use this data for real-world aviation or navigation. No guarantee of current accuracy is given.